createdAt,value
2023-01-19T00:01:31.232Z,13.55
2023-01-19T00:03:59.196Z,16.13
2023-01-19T00:06:26.898Z,17.70
2023-01-19T00:08:54.635Z,18.08
2023-01-19T00:11:22.274Z,11.68
2023-01-19T00:13:51.071Z,14.07
2023-01-19T00:16:21.769Z,14.60
2023-01-19T00:18:50.431Z,10.30
2023-01-19T00:21:18.460Z,11.15
2023-01-19T00:23:47.668Z,10.82
2023-01-19T00:26:16.272Z,17.45
2023-01-19T00:28:44.111Z,12.45
2023-01-19T00:31:12.073Z,13.38
2023-01-19T00:33:41.146Z,9.40
2023-01-19T00:36:10.114Z,13.40
2023-01-19T00:38:39.056Z,11.48
2023-01-19T00:41:06.992Z,12.05
2023-01-19T00:43:34.596Z,11.00
2023-01-19T00:46:02.364Z,14.70
2023-01-19T00:48:30.767Z,19.02
2023-01-19T00:51:01.749Z,11.02
2023-01-19T00:53:32.461Z,14.55
2023-01-19T00:56:00.205Z,15.65
2023-01-19T00:58:27.838Z,11.25
2023-01-19T01:00:57.777Z,19.33
2023-01-19T01:03:28.085Z,17.77
2023-01-19T01:05:55.987Z,11.27
2023-01-19T01:08:25.324Z,16.20
2023-01-19T01:10:53.051Z,15.45
2023-01-19T01:13:21.721Z,15.27
2023-01-19T01:15:52.053Z,11.20
2023-01-19T01:18:19.734Z,14.48
2023-01-19T01:20:47.449Z,16.80
2023-01-19T01:23:15.345Z,12.65
2023-01-19T01:25:44.435Z,17.55
2023-01-19T01:28:12.076Z,9.98
2023-01-19T01:30:43.377Z,11.88
2023-01-19T01:33:11.778Z,12.48
2023-01-19T01:35:39.695Z,16.83
2023-01-19T01:38:07.701Z,12.38
2023-01-19T01:40:35.399Z,17.48
2023-01-19T01:43:04.483Z,14.93
2023-01-19T01:45:34.045Z,16.20
2023-01-19T01:48:04.874Z,11.07
2023-01-19T01:50:35.290Z,17.60
2023-01-19T01:53:07.041Z,12.63
2023-01-19T01:55:37.926Z,12.15
2023-01-19T01:58:07.140Z,16.08
2023-01-19T02:00:54.912Z,15.60
2023-01-19T02:03:22.833Z,16.27
2023-01-19T02:05:51.218Z,13.85
2023-01-19T02:08:37.632Z,16.40
2023-01-19T02:11:23.198Z,11.07
2023-01-19T02:13:52.250Z,13.68
2023-01-19T02:16:20.033Z,14.90
2023-01-19T02:18:48.636Z,14.95
2023-01-19T02:21:20.165Z,18.70
2023-01-19T02:23:50.652Z,16.48
2023-01-19T02:26:20.231Z,10.18
2023-01-19T02:28:50.472Z,13.18
2023-01-19T02:31:18.675Z,14.30
2023-01-19T02:33:46.651Z,13.32
2023-01-19T02:36:16.659Z,12.05
2023-01-19T02:38:45.119Z,11.63
2023-01-19T02:41:16.276Z,13.77
2023-01-19T02:43:44.956Z,8.88
2023-01-19T02:46:12.678Z,16.00
2023-01-19T02:48:40.443Z,13.77
2023-01-19T02:51:12.554Z,12.35
2023-01-19T02:53:54.779Z,11.73
2023-01-19T02:56:44.671Z,11.73
2023-01-19T02:59:15.871Z,18.25
2023-01-19T03:02:04.928Z,11.15
2023-01-19T03:04:38.635Z,13.82
2023-01-19T03:07:09.696Z,14.77
2023-01-19T03:09:42.207Z,9.95
2023-01-19T03:12:16.061Z,15.68
2023-01-19T03:14:47.448Z,12.85
2023-01-19T03:17:16.197Z,12.05
2023-01-19T03:19:44.818Z,13.60
2023-01-19T03:22:14.289Z,14.18
2023-01-19T03:24:44.449Z,15.38
2023-01-19T03:27:15.743Z,11.07
2023-01-19T03:29:44.087Z,13.40
2023-01-19T03:32:15.741Z,16.00
2023-01-19T03:34:44.339Z,12.25
2023-01-19T03:37:13.021Z,13.00
2023-01-19T03:39:40.943Z,16.75
2023-01-19T03:42:11.230Z,15.95
2023-01-19T03:44:43.222Z,13.73
2023-01-19T03:47:12.180Z,14.07
2023-01-19T03:49:40.416Z,14.90
2023-01-19T03:52:08.057Z,11.38
2023-01-19T03:54:36.470Z,17.92
2023-01-19T03:57:04.289Z,19.45
2023-01-19T03:59:32.004Z,12.93
2023-01-19T04:02:01.219Z,17.90
2023-01-19T04:04:28.929Z,15.65
2023-01-19T04:06:57.055Z,15.88
2023-01-19T04:09:24.849Z,11.32
2023-01-19T04:11:52.770Z,14.07
2023-01-19T04:14:20.528Z,12.85
2023-01-19T04:16:48.152Z,15.23
2023-01-19T04:19:17.235Z,13.27
2023-01-19T04:21:44.896Z,20.27
2023-01-19T04:24:12.595Z,17.25
2023-01-19T04:26:40.949Z,16.85
2023-01-19T04:29:08.620Z,14.02
2023-01-19T04:31:36.957Z,16.02
2023-01-19T04:34:04.688Z,12.38
2023-01-19T04:36:33.744Z,15.88
2023-01-19T04:39:01.380Z,13.57
2023-01-19T04:41:30.324Z,14.15
2023-01-19T04:43:58.785Z,10.20
2023-01-19T04:46:26.477Z,16.50
2023-01-19T04:48:54.197Z,14.70
2023-01-19T04:51:21.846Z,12.45
2023-01-19T04:53:51.114Z,20.65
2023-01-19T04:56:18.774Z,14.10
2023-01-19T04:58:46.415Z,18.45
2023-01-19T05:01:14.117Z,13.45
2023-01-19T05:03:41.819Z,16.02
2023-01-19T05:06:09.596Z,12.88
2023-01-19T05:08:37.505Z,17.10
2023-01-19T05:11:06.682Z,10.82
2023-01-19T05:13:34.558Z,12.40
2023-01-19T05:16:03.347Z,16.30
2023-01-19T05:18:35.979Z,15.55
2023-01-19T05:21:03.812Z,20.88
2023-01-19T05:23:32.651Z,17.90
2023-01-19T05:26:00.820Z,16.33
2023-01-19T05:28:30.104Z,20.80
2023-01-19T05:30:57.873Z,14.73
2023-01-19T05:33:26.128Z,16.05
2023-01-19T05:35:54.381Z,18.52
2023-01-19T05:38:34.279Z,20.75
2023-01-19T05:41:02.850Z,18.17
2023-01-19T05:43:31.865Z,19.13
2023-01-19T05:45:59.631Z,12.27
2023-01-19T05:48:27.305Z,16.05
2023-01-19T05:50:58.054Z,18.52
2023-01-19T05:53:25.715Z,22.83
2023-01-19T05:55:53.461Z,14.27
2023-01-19T05:58:21.142Z,20.48
2023-01-19T06:00:50.167Z,15.73
2023-01-19T06:03:18.078Z,10.80
2023-01-19T06:05:45.790Z,17.20
2023-01-19T06:08:13.411Z,13.05
2023-01-19T06:10:41.361Z,16.20
2023-01-19T06:13:09.814Z,15.52
2023-01-19T06:15:38.563Z,12.13
2023-01-19T06:18:07.652Z,14.38
2023-01-19T06:20:35.283Z,12.88
2023-01-19T06:23:03.348Z,21.73
2023-01-19T06:25:31.327Z,17.48
2023-01-19T06:27:59.039Z,13.90
2023-01-19T06:30:27.040Z,11.68
2023-01-19T06:32:54.952Z,20.23
2023-01-19T06:35:24.003Z,22.05
2023-01-19T06:37:51.864Z,19.95
2023-01-19T06:40:19.617Z,19.73
2023-01-19T06:42:47.288Z,13.00
2023-01-19T06:45:14.930Z,15.02
2023-01-19T06:47:42.638Z,15.85
2023-01-19T06:50:10.912Z,18.55
2023-01-19T06:52:42.446Z,20.60
2023-01-19T06:55:11.191Z,18.33
2023-01-19T06:57:40.210Z,20.67
2023-01-19T07:00:09.106Z,16.63
2023-01-19T07:02:37.035Z,19.25
2023-01-19T07:05:06.987Z,17.60
2023-01-19T07:07:34.661Z,15.35
2023-01-19T07:10:03.698Z,15.93
2023-01-19T07:12:31.608Z,16.33
2023-01-19T07:14:59.985Z,28.23
2023-01-19T07:17:27.672Z,17.80
2023-01-19T07:19:55.303Z,19.77
2023-01-19T07:22:22.994Z,20.55
2023-01-19T07:24:50.714Z,22.58
2023-01-19T07:27:19.730Z,27.40
2023-01-19T07:29:47.495Z,21.23
2023-01-19T07:32:15.144Z,23.55
2023-01-19T07:34:42.818Z,23.25
2023-01-19T07:37:10.478Z,20.63
2023-01-19T07:39:38.132Z,11.05
2023-01-19T07:42:05.786Z,15.25
2023-01-19T07:44:34.775Z,22.05
2023-01-19T07:47:03.521Z,15.57
2023-01-19T07:49:31.326Z,26.33
2023-01-19T07:51:59.074Z,21.38
2023-01-19T07:54:26.736Z,16.75
2023-01-19T07:56:55.834Z,19.02
2023-01-19T07:59:23.492Z,20.67
2023-01-19T08:01:54.119Z,17.55
2023-01-19T08:04:21.965Z,17.80
2023-01-19T08:06:49.677Z,17.63
2023-01-19T08:09:17.919Z,19.77
2023-01-19T08:11:45.680Z,21.02
2023-01-19T08:14:13.340Z,24.55
2023-01-19T08:16:40.989Z,19.52
2023-01-19T08:19:10.027Z,23.52
2023-01-19T08:21:38.953Z,24.13
2023-01-19T08:24:06.933Z,25.63
2023-01-19T08:26:36.172Z,24.17
2023-01-19T08:29:04.556Z,18.40
2023-01-19T08:31:32.376Z,26.85
2023-01-19T08:34:00.246Z,25.73
2023-01-19T08:36:30.404Z,23.33
2023-01-19T08:38:58.072Z,19.63
2023-01-19T08:41:25.755Z,27.98
2023-01-19T08:43:53.449Z,27.17
2023-01-19T08:46:21.945Z,20.20
2023-01-19T08:48:50.356Z,24.10
2023-01-19T08:51:18.240Z,23.33
2023-01-19T08:53:47.456Z,24.80
2023-01-19T08:56:15.419Z,20.02
2023-01-19T08:58:43.733Z,33.30
2023-01-19T09:01:16.841Z,23.00
2023-01-19T09:03:44.667Z,24.65
2023-01-19T09:06:13.198Z,29.23
2023-01-19T09:08:40.895Z,28.70
2023-01-19T09:11:12.388Z,32.40
2023-01-19T09:13:40.145Z,21.13
2023-01-19T09:16:08.754Z,32.13
2023-01-19T09:18:36.780Z,28.90
2023-01-19T09:21:04.990Z,34.90
2023-01-19T09:23:32.709Z,26.88
2023-01-19T09:26:01.145Z,30.00
2023-01-19T09:28:30.578Z,30.13
2023-01-19T09:30:58.324Z,30.48
2023-01-19T09:33:26.047Z,22.92
2023-01-19T09:35:53.714Z,25.48
2023-01-19T09:38:22.460Z,23.23
2023-01-19T09:40:51.810Z,31.33
2023-01-19T09:43:24.374Z,31.08
2023-01-19T09:45:55.285Z,37.97
2023-01-19T09:48:29.638Z,36.85
2023-01-19T09:50:59.216Z,34.00
2023-01-19T09:53:30.825Z,26.17
2023-01-19T09:55:59.052Z,26.67
2023-01-19T09:58:26.844Z,27.38
2023-01-19T10:00:59.595Z,30.73
2023-01-19T10:03:27.372Z,33.95
2023-01-19T10:05:56.915Z,36.97
2023-01-19T10:08:27.098Z,33.03
2023-01-19T10:10:55.538Z,35.08
2023-01-19T10:13:26.830Z,27.17
2023-01-19T10:16:00.698Z,26.23
2023-01-19T10:18:34.600Z,21.33
2023-01-19T10:21:05.557Z,32.63
2023-01-19T10:23:37.036Z,36.50
2023-01-19T10:26:09.338Z,22.08
2023-01-19T10:28:37.661Z,33.63
2023-01-19T10:31:09.555Z,27.63
2023-01-19T10:33:37.548Z,24.88
2023-01-19T10:36:07.006Z,27.08
2023-01-19T10:38:35.634Z,21.88
2023-01-19T10:41:06.718Z,23.55
2023-01-19T10:43:39.237Z,26.10
2023-01-19T10:46:08.802Z,27.13
2023-01-19T10:48:41.948Z,20.48
2023-01-19T10:51:10.130Z,18.65
2023-01-19T10:53:38.365Z,25.67
2023-01-19T10:56:17.602Z,20.70
2023-01-19T10:58:45.484Z,28.40
2023-01-19T11:01:15.899Z,20.52
2023-01-19T11:03:43.730Z,21.40
2023-01-19T11:06:21.185Z,19.27
2023-01-19T11:08:50.343Z,22.67
2023-01-19T11:11:18.651Z,20.95
2023-01-19T11:13:46.481Z,18.58
2023-01-19T11:16:18.833Z,24.20
2023-01-19T11:18:47.198Z,23.52
2023-01-19T11:21:16.274Z,32.40
2023-01-19T11:23:47.016Z,21.48
2023-01-19T11:26:16.368Z,27.05
2023-01-19T11:28:47.413Z,18.83
2023-01-19T11:31:20.528Z,19.90
2023-01-19T11:33:50.964Z,18.70
2023-01-19T11:36:21.044Z,24.23
2023-01-19T11:38:50.639Z,23.15
2023-01-19T11:41:20.051Z,23.85
2023-01-19T11:43:50.261Z,23.38
2023-01-19T11:46:19.735Z,28.95
2023-01-19T11:48:49.812Z,20.00
2023-01-19T11:51:20.549Z,17.98
2023-01-19T11:53:50.418Z,30.05
2023-01-19T11:56:20.562Z,26.90
2023-01-19T11:58:48.203Z,26.02
2023-01-19T12:01:21.304Z,25.33
2023-01-19T12:03:54.712Z,24.92
2023-01-19T12:06:24.981Z,29.08
2023-01-19T12:08:55.854Z,23.25
2023-01-19T12:11:25.191Z,22.85
2023-01-19T12:13:53.906Z,31.85
2023-01-19T12:16:23.575Z,34.60
2023-01-19T12:18:53.602Z,24.65
2023-01-19T12:21:21.463Z,28.63
2023-01-19T12:23:52.239Z,29.85
2023-01-19T12:26:28.372Z,28.77
2023-01-19T12:28:58.688Z,26.50
2023-01-19T12:31:28.275Z,25.38
2023-01-19T12:33:56.603Z,24.83
2023-01-19T12:36:37.614Z,29.15
2023-01-19T12:39:07.301Z,17.90
2023-01-19T12:41:35.618Z,26.02
2023-01-19T12:44:16.750Z,25.55
2023-01-19T12:46:47.079Z,17.23
2023-01-19T12:49:19.950Z,21.15
2023-01-19T12:51:48.412Z,17.63
2023-01-19T12:54:21.313Z,22.70
2023-01-19T12:56:49.034Z,26.33
2023-01-19T12:59:23.323Z,25.63
2023-01-19T13:02:05.905Z,23.75
2023-01-19T13:04:35.013Z,20.88
2023-01-19T13:07:13.699Z,26.38
2023-01-19T13:09:43.161Z,19.52
2023-01-19T13:12:26.785Z,19.30
2023-01-19T13:15:09.347Z,22.60
2023-01-19T13:17:40.122Z,26.40
2023-01-19T13:20:22.611Z,26.27
2023-01-19T13:22:52.607Z,25.33
2023-01-19T13:25:27.703Z,21.65
2023-01-19T13:27:55.829Z,21.98
2023-01-19T13:30:27.015Z,19.98
2023-01-19T13:32:55.642Z,26.08
2023-01-19T13:35:23.696Z,27.00
2023-01-19T13:37:55.005Z,25.33
2023-01-19T13:40:23.773Z,21.65
2023-01-19T13:42:53.072Z,20.85
2023-01-19T13:45:28.836Z,23.80
2023-01-19T13:47:58.155Z,17.60
2023-01-19T13:50:27.191Z,19.63
2023-01-19T13:52:58.809Z,27.05
2023-01-19T13:55:28.281Z,25.05
2023-01-19T13:57:56.123Z,22.27
2023-01-19T14:00:24.904Z,21.15
2023-01-19T14:02:54.617Z,18.95
2023-01-19T14:05:23.403Z,22.17
2023-01-19T14:08:01.790Z,22.88
2023-01-19T14:10:31.301Z,23.08
2023-01-19T14:12:59.820Z,20.35
2023-01-19T14:15:27.679Z,27.08
2023-01-19T14:18:23.515Z,22.85
2023-01-19T14:20:55.086Z,19.10
2023-01-19T14:23:41.452Z,23.10
2023-01-19T14:26:23.927Z,18.83
2023-01-19T14:28:53.332Z,19.50
2023-01-19T14:31:21.849Z,25.83
2023-01-19T14:33:50.496Z,21.58
2023-01-19T14:36:29.965Z,20.67
2023-01-19T14:38:59.273Z,22.15
2023-01-19T14:41:28.825Z,27.02
2023-01-19T14:43:57.888Z,37.80
2023-01-19T14:46:25.829Z,19.08
2023-01-19T14:48:56.510Z,22.20
2023-01-19T14:51:25.296Z,26.48
2023-01-19T14:53:57.994Z,16.92
2023-01-19T14:56:27.183Z,31.13
2023-01-19T14:58:54.894Z,19.40
2023-01-19T15:01:24.503Z,22.60
2023-01-19T15:03:52.268Z,22.17
2023-01-19T15:06:21.201Z,23.80
2023-01-19T15:08:50.179Z,20.63
2023-01-19T15:11:23.579Z,25.17
2023-01-19T15:13:51.559Z,19.83
2023-01-19T15:16:20.217Z,18.88
2023-01-19T15:18:49.278Z,20.25
2023-01-19T15:21:19.635Z,19.83
2023-01-19T15:23:48.520Z,22.08
2023-01-19T15:26:17.543Z,20.05
2023-01-19T15:28:45.757Z,20.38
2023-01-19T15:31:15.789Z,19.77
2023-01-19T15:33:43.513Z,19.25
2023-01-19T15:36:16.957Z,23.85
2023-01-19T15:38:45.510Z,22.02
2023-01-19T15:41:14.363Z,23.02
2023-01-19T15:43:42.060Z,19.38
2023-01-19T15:46:12.277Z,22.90
2023-01-19T15:48:39.931Z,26.45
2023-01-19T15:51:07.645Z,25.05
2023-01-19T15:53:36.646Z,22.85
2023-01-19T15:56:04.415Z,23.48
2023-01-19T15:58:32.052Z,25.30
2023-01-19T16:00:59.829Z,30.48
2023-01-19T16:03:27.531Z,17.17
2023-01-19T16:05:55.211Z,25.35
2023-01-19T16:08:22.915Z,22.83
2023-01-19T16:10:51.907Z,21.70
2023-01-19T16:13:19.533Z,23.70
2023-01-19T16:15:47.181Z,22.55
2023-01-19T16:18:15.121Z,17.92
2023-01-19T16:20:42.834Z,22.70
2023-01-19T16:23:15.977Z,20.60
2023-01-19T16:25:44.058Z,18.60
2023-01-19T16:28:13.190Z,25.55
2023-01-19T16:30:40.897Z,18.25
2023-01-19T16:33:11.720Z,24.58
2023-01-19T16:35:40.229Z,23.17
2023-01-19T16:38:09.367Z,20.98
2023-01-19T16:40:37.092Z,22.70
2023-01-19T16:43:04.745Z,20.95
2023-01-19T16:45:33.785Z,19.60
2023-01-19T16:48:01.474Z,16.85
2023-01-19T16:50:29.095Z,19.73
2023-01-19T16:52:57.303Z,25.98
2023-01-19T16:55:24.980Z,25.13
2023-01-19T16:57:52.663Z,24.60
2023-01-19T17:00:20.813Z,22.50
2023-01-19T17:02:49.853Z,23.75
2023-01-19T17:05:17.702Z,17.63
2023-01-19T17:07:45.374Z,21.63
2023-01-19T17:10:13.332Z,25.88
2023-01-19T17:12:41.155Z,20.73
2023-01-19T17:15:10.351Z,26.55
2023-01-19T17:17:38.190Z,26.73
2023-01-19T17:20:08.008Z,35.53
2023-01-19T17:22:35.749Z,28.13
2023-01-19T17:25:03.527Z,33.40
2023-01-19T17:27:31.323Z,27.17
2023-01-19T17:29:58.969Z,31.92
2023-01-19T17:32:26.622Z,31.83
2023-01-19T17:34:54.248Z,32.40
2023-01-19T17:37:23.259Z,36.03
2023-01-19T17:39:50.905Z,28.17
2023-01-19T17:42:18.581Z,31.33
2023-01-19T17:44:46.200Z,38.00
2023-01-19T17:47:14.248Z,29.40
2023-01-19T17:49:41.906Z,27.52
2023-01-19T17:52:09.583Z,35.08
2023-01-19T17:54:38.603Z,35.35
2023-01-19T17:57:06.893Z,35.28
2023-01-19T17:59:34.777Z,36.35
2023-01-19T18:02:02.497Z,26.40
2023-01-19T18:04:32.142Z,34.00
2023-01-19T18:07:00.104Z,32.30
2023-01-19T18:09:27.841Z,37.97
2023-01-19T18:11:56.812Z,31.60
2023-01-19T18:14:24.579Z,30.90
2023-01-19T18:16:52.236Z,35.40
2023-01-19T18:19:23.289Z,27.48
2023-01-19T18:21:50.993Z,27.83
2023-01-19T18:24:20.071Z,43.42
2023-01-19T18:26:47.896Z,35.45
2023-01-19T18:29:19.301Z,26.55
2023-01-19T18:31:47.054Z,32.38
2023-01-19T18:34:14.755Z,27.98
2023-01-19T18:36:43.309Z,25.52
2023-01-19T18:39:10.935Z,27.75
2023-01-19T18:41:41.719Z,34.33
2023-01-19T18:44:09.637Z,36.22
2023-01-19T18:46:39.262Z,36.97
2023-01-19T18:49:07.435Z,32.40
2023-01-19T18:51:35.118Z,23.33
2023-01-19T18:54:03.051Z,28.13
2023-01-19T18:56:30.731Z,34.35
2023-01-19T18:58:58.510Z,36.42
2023-01-19T19:01:27.757Z,25.80
2023-01-19T19:03:58.006Z,26.15
2023-01-19T19:06:27.191Z,24.00
2023-01-19T19:08:55.682Z,34.88
2023-01-19T19:11:24.138Z,35.92
2023-01-19T19:13:55.374Z,30.60
2023-01-19T19:16:23.230Z,29.60
2023-01-19T19:18:50.936Z,21.80
2023-01-19T19:21:20.863Z,32.95
2023-01-19T19:23:50.787Z,31.83
2023-01-19T19:26:18.525Z,29.00
2023-01-19T19:28:47.377Z,26.17
2023-01-19T19:31:16.630Z,22.27
2023-01-19T19:33:44.336Z,29.75
2023-01-19T19:36:12.841Z,34.47
2023-01-19T19:38:42.930Z,31.77
2023-01-19T19:41:12.380Z,36.03
2023-01-19T19:43:40.467Z,36.40
2023-01-19T19:46:09.166Z,42.55
2023-01-19T19:48:39.343Z,31.02
2023-01-19T19:51:17.716Z,38.80
2023-01-19T19:53:51.196Z,38.97
2023-01-19T19:56:21.228Z,43.65
2023-01-19T19:58:49.088Z,51.38
2023-01-19T20:01:17.810Z,49.67
2023-01-19T20:03:45.732Z,54.15
2023-01-19T20:06:14.362Z,48.83
2023-01-19T20:08:42.182Z,38.13
2023-01-19T20:11:12.090Z,35.88
2023-01-19T20:13:40.439Z,38.58
2023-01-19T20:16:10.280Z,30.52
2023-01-19T20:18:38.578Z,37.92
2023-01-19T20:21:11.899Z,28.35
2023-01-19T20:23:39.733Z,35.28
2023-01-19T20:26:07.905Z,27.38
2023-01-19T20:28:37.327Z,26.05
2023-01-19T20:31:11.792Z,25.02
2023-01-19T20:33:39.786Z,31.75
2023-01-19T20:36:07.730Z,28.65
2023-01-19T20:38:35.617Z,32.30
2023-01-19T20:41:03.331Z,29.08
2023-01-19T20:43:31.343Z,29.88
2023-01-19T20:46:00.475Z,32.45
2023-01-19T20:48:28.182Z,24.45
2023-01-19T20:50:59.159Z,31.98
2023-01-19T20:53:27.061Z,26.08
2023-01-19T20:55:54.688Z,28.52
2023-01-19T20:58:23.070Z,28.73
2023-01-19T21:00:51.105Z,29.90
2023-01-19T21:03:20.370Z,28.92
2023-01-19T21:05:48.715Z,30.70
2023-01-19T21:08:16.584Z,29.60
2023-01-19T21:10:45.518Z,32.42
2023-01-19T21:13:13.193Z,27.48
2023-01-19T21:15:40.857Z,34.08
2023-01-19T21:18:10.858Z,24.67
2023-01-19T21:20:39.877Z,28.75
2023-01-19T21:23:07.565Z,28.02
2023-01-19T21:25:37.237Z,27.67
2023-01-19T21:28:04.932Z,31.00
2023-01-19T21:30:32.591Z,34.00
2023-01-19T21:33:02.252Z,27.27
2023-01-19T21:35:30.746Z,26.85
2023-01-19T21:38:00.432Z,27.40
2023-01-19T21:40:28.158Z,31.98
2023-01-19T21:42:55.851Z,25.25
2023-01-19T21:45:23.638Z,28.63
2023-01-19T21:47:51.467Z,30.25
2023-01-19T21:50:19.559Z,23.00
2023-01-19T21:52:47.248Z,31.75
2023-01-19T21:55:16.319Z,35.47
2023-01-19T21:57:43.988Z,27.33
2023-01-19T22:00:12.097Z,30.55
2023-01-19T22:02:40.048Z,22.02
2023-01-19T22:05:08.186Z,33.72
2023-01-19T22:07:36.138Z,24.13
2023-01-19T22:10:03.822Z,28.08
2023-01-19T22:12:32.816Z,36.55
2023-01-19T22:15:00.481Z,42.67
2023-01-19T22:17:28.079Z,40.95
2023-01-19T22:19:55.707Z,30.38
2023-01-19T22:22:23.407Z,26.05
2023-01-19T22:24:51.136Z,30.67
2023-01-19T22:27:19.509Z,37.75
2023-01-19T22:29:49.313Z,49.08
2023-01-19T22:32:16.952Z,39.42
2023-01-19T22:34:44.589Z,34.08
2023-01-19T22:37:12.284Z,31.60
2023-01-19T22:39:39.941Z,30.75
2023-01-19T22:42:07.606Z,32.63
2023-01-19T22:44:35.245Z,34.85
2023-01-19T22:47:04.345Z,30.13
2023-01-19T22:49:31.924Z,30.42
2023-01-19T22:51:59.719Z,36.10
2023-01-19T22:54:29.878Z,36.08
2023-01-19T22:56:57.517Z,29.98
2023-01-19T22:59:25.339Z,42.03
2023-01-19T23:01:53.402Z,41.75
2023-01-19T23:04:22.523Z,36.67
2023-01-19T23:06:51.994Z,38.83
2023-01-19T23:09:19.744Z,34.00
2023-01-19T23:11:50.465Z,29.95
2023-01-19T23:14:18.910Z,32.35
2023-01-19T23:16:47.278Z,36.50
2023-01-19T23:19:17.125Z,32.42
2023-01-19T23:21:46.691Z,38.25
2023-01-19T23:24:14.340Z,32.38
2023-01-19T23:26:42.153Z,32.00
2023-01-19T23:29:12.172Z,38.08
2023-01-19T23:31:40.850Z,35.28
2023-01-19T23:34:09.501Z,39.53
2023-01-19T23:36:38.134Z,32.33
2023-01-19T23:39:09.871Z,37.08
2023-01-19T23:41:37.581Z,35.03
2023-01-19T23:44:05.352Z,38.92
2023-01-19T23:46:33.447Z,47.60
2023-01-19T23:49:01.149Z,35.03
2023-01-19T23:51:30.042Z,31.27
2023-01-19T23:53:57.714Z,38.92
2023-01-19T23:56:27.494Z,35.90
2023-01-19T23:58:55.701Z,30.25
